Terminal Aerodrome Forecast
Issued by NWS

Home | Current Version | Previous Version | Text Only | Print | Product List | Glossary On
Versions: 1 2 3 4 5 6 7 8 9 10 11 12 13 14 15 16 17 18 19 20
418
FTUS41 KBTV 111737
TAFRUT
TAF
KRUT 111737Z 1118/1218 25007KT P6SM VCSH SCT025 OVC045
      TEMPO 1118/1121 4SM -SHSN BR OVC025
     FM112200 30009KT P6SM OVC045
     FM120500 30006KT P6SM SCT080
     FM121300 19004KT P6SM FEW090
     FM121700 21008KT P6SM BKN050
      AMD LTD TO CLD VIS AND WIND=

USA.gov is the U.S. government's official web portal to all federal, state and local government web resources and services.